createdAt,value
2022-11-06T00:09:13.564Z,100
2022-11-06T00:19:13.547Z,100
2022-11-06T00:29:13.581Z,100
2022-11-06T00:39:13.556Z,100
2022-11-06T00:49:13.691Z,100
2022-11-06T00:59:13.555Z,100
2022-11-06T01:09:13.600Z,100
2022-11-06T01:19:13.565Z,100
2022-11-06T01:29:13.606Z,100
2022-11-06T01:39:13.584Z,100
2022-11-06T01:49:13.614Z,100
2022-11-06T01:59:13.602Z,100
2022-11-06T02:09:13.650Z,100
2022-11-06T02:19:13.626Z,100
2022-11-06T02:29:13.659Z,100
2022-11-06T02:39:13.604Z,100
2022-11-06T02:49:13.658Z,100
2022-11-06T02:59:13.617Z,100
2022-11-06T03:09:13.761Z,100
2022-11-06T03:19:13.642Z,100
2022-11-06T03:29:13.746Z,100
2022-11-06T03:39:13.633Z,100
2022-11-06T03:49:13.810Z,100
2022-11-06T03:59:13.746Z,100
2022-11-06T04:09:13.674Z,100
2022-11-06T04:19:13.684Z,100
2022-11-06T04:29:13.711Z,100
2022-11-06T04:39:13.668Z,100
2022-11-06T04:49:13.725Z,100
2022-11-06T04:59:13.706Z,100
2022-11-06T05:09:13.717Z,100
2022-11-06T05:19:13.702Z,100
2022-11-06T05:29:13.760Z,100
2022-11-06T05:39:13.728Z,100
2022-11-06T05:49:13.750Z,100
2022-11-06T05:59:13.741Z,100
2022-11-06T06:09:13.824Z,100
2022-11-06T06:19:13.747Z,100
2022-11-06T06:29:13.770Z,100
2022-11-06T06:39:13.736Z,100
2022-11-06T06:49:13.789Z,100
2022-11-06T06:59:13.774Z,100
2022-11-06T07:09:13.880Z,100
2022-11-06T07:19:13.776Z,100
2022-11-06T07:29:13.915Z,100
2022-11-06T07:39:13.776Z,100
2022-11-06T07:49:13.780Z,100
2022-11-06T07:59:13.775Z,100
2022-11-06T08:09:13.821Z,100
2022-11-06T08:19:13.791Z,100
2022-11-06T08:29:13.883Z,100
2022-11-06T08:39:13.765Z,100
2022-11-06T08:49:13.799Z,100
2022-11-06T08:59:13.771Z,100
2022-11-06T09:09:13.805Z,100
2022-11-06T09:19:13.768Z,100
2022-11-06T09:29:13.848Z,100
2022-11-06T09:39:13.763Z,100
2022-11-06T09:49:13.809Z,100
2022-11-06T09:59:13.792Z,95
2022-11-06T10:09:13.792Z,90
2022-11-06T10:19:13.767Z,78
2022-11-06T10:29:13.776Z,76
2022-11-06T10:39:13.751Z,72
2022-11-06T10:49:13.749Z,64
2022-11-06T10:59:13.720Z,66
2022-11-06T11:09:13.824Z,54
2022-11-06T11:19:13.730Z,59
2022-11-06T11:29:13.711Z,62
2022-11-06T11:39:13.703Z,64
2022-11-06T11:49:13.708Z,65
2022-11-06T11:59:13.717Z,66
2022-11-06T12:09:13.721Z,61
2022-11-06T12:19:13.712Z,63
2022-11-06T12:29:13.800Z,62
2022-11-06T12:39:13.701Z,64
2022-11-06T12:49:13.867Z,61
2022-11-06T12:59:13.669Z,61
2022-11-06T13:09:13.874Z,60
2022-11-06T13:19:13.678Z,60
2022-11-06T13:29:13.848Z,59
2022-11-06T13:39:13.682Z,65
2022-11-06T13:49:13.692Z,55
2022-11-06T13:59:13.671Z,53
2022-11-06T14:09:13.699Z,57
2022-11-06T14:19:13.679Z,60
2022-11-06T14:29:13.646Z,62
2022-11-06T14:39:13.619Z,72
2022-11-06T14:49:13.661Z,75
2022-11-06T14:59:13.621Z,90
2022-11-06T15:09:13.639Z,91
2022-11-06T15:19:13.642Z,100
2022-11-06T15:29:13.649Z,100
2022-11-06T15:39:13.603Z,100
2022-11-06T15:49:13.622Z,100
2022-11-06T15:59:13.618Z,100
2022-11-06T16:09:13.748Z,100
2022-11-06T16:19:13.613Z,100
2022-11-06T16:29:13.739Z,100
2022-11-06T16:39:13.645Z,100
2022-11-06T16:49:13.696Z,100
2022-11-06T16:59:13.613Z,100
2022-11-06T17:09:13.661Z,100
2022-11-06T17:19:13.602Z,100
2022-11-06T17:29:15.871Z,100
2022-11-06T17:39:13.628Z,100
2022-11-06T17:49:17.413Z,100
2022-11-06T17:59:13.626Z,100
2022-11-06T18:09:13.644Z,100
2022-11-06T18:19:13.637Z,100
2022-11-06T18:29:13.646Z,100
2022-11-06T18:39:13.630Z,100
2022-11-06T18:49:13.657Z,100
2022-11-06T18:59:13.645Z,100
2022-11-06T19:09:13.764Z,100
2022-11-06T19:19:13.651Z,100
2022-11-06T19:29:13.696Z,100
2022-11-06T19:39:13.674Z,100
2022-11-06T19:49:13.697Z,100
2022-11-06T19:59:13.672Z,100
2022-11-06T20:09:13.673Z,100
2022-11-06T20:19:13.663Z,100
2022-11-06T20:29:13.689Z,100
2022-11-06T20:39:13.690Z,100
2022-11-06T20:49:13.699Z,100
2022-11-06T20:59:13.657Z,100
2022-11-06T21:09:13.695Z,100
2022-11-06T21:19:13.671Z,100
2022-11-06T21:29:13.709Z,100
2022-11-06T21:39:13.705Z,100
2022-11-06T21:49:13.718Z,100
2022-11-06T21:59:13.699Z,100
2022-11-06T22:09:13.703Z,100
2022-11-06T22:19:13.722Z,100
2022-11-06T22:29:13.754Z,100
2022-11-06T22:39:13.732Z,100
2022-11-06T22:49:13.758Z,100
2022-11-06T22:59:13.736Z,100
2022-11-06T23:09:13.815Z,100
2022-11-06T23:19:13.734Z,100
2022-11-06T23:29:13.751Z,100
2022-11-06T23:39:13.715Z,100
2022-11-06T23:49:13.786Z,100
2022-11-06T23:59:13.751Z,100
